EXS4WA EGNT-LCLK
Flight info
| Callsign | EXS4WA |
|---|---|
| Flight time | N/A |
| Altitude | 23000 |
| Route | GIRLI P18 GASKO Y250 OBOXA/N0399F250 Y250 KEFTE/N0442F330 UY250 MAMUL L603 DOLAS DCT NAVPI/N0445F350 DCT DODEN DCT NEGIX DCT DINKU DCT BESNI DCT LATLO DCT OBEDI DCT KLAGY DCT MAGAM DCT VABEK UL603 OLOTA DCT RUGAS/N0442F370 DCT PEREN UN128 LMO DCT RIKSO UP14 ZAFLE DCT BENEM DCT EVENO DCT DASNI M601 BONEK |
| Aircraft | B738/M-SDE2E3FGHIRWXY/LB1 |
Departure
| Time | N/A |
|---|---|
| Airport | Newcastle International Airport (EGNT) |
Arrival
| Time | 2026-05-05 15:10 |
|---|---|
| Airport | Larnaca International Airport (LCLK) |
| Time | Latitude | Longitude | Altitude | Speed | Heading |
|---|---|---|---|---|---|
| 2026-05-05 14:26 | 36.77711 | 28.79417 | 36947 ft | 485 kts | 146° |
| 2026-05-05 14:27 | 36.72712 | 28.85040 | 36976 ft | 486 kts | 127° |
| 2026-05-05 14:27 | 36.68925 | 28.91980 | 36974 ft | 486 kts | 122° |
| 2026-05-05 14:28 | 36.65228 | 28.98998 | 36977 ft | 487 kts | 123° |
| 2026-05-05 14:28 | 36.61462 | 29.06031 | 36973 ft | 488 kts | 123° |
| 2026-05-05 14:29 | 36.57663 | 29.13035 | 36972 ft | 489 kts | 123° |
| 2026-05-05 14:29 | 36.53839 | 29.20047 | 36980 ft | 490 kts | 123° |
| 2026-05-05 14:30 | 36.50012 | 29.27051 | 36995 ft | 490 kts | 123° |
| 2026-05-05 14:30 | 36.46181 | 29.34055 | 36981 ft | 490 kts | 123° |
| 2026-05-05 14:31 | 36.42343 | 29.41057 | 36983 ft | 490 kts | 124° |
| 2026-05-05 14:31 | 36.38526 | 29.48007 | 36963 ft | 489 kts | 124° |
| 2026-05-05 14:32 | 36.34695 | 29.54969 | 36984 ft | 489 kts | 124° |
| 2026-05-05 14:32 | 36.30851 | 29.61941 | 36980 ft | 488 kts | 124° |
| 2026-05-05 14:33 | 36.27018 | 29.68879 | 36964 ft | 487 kts | 124° |
| 2026-05-05 14:33 | 36.23187 | 29.75796 | 36976 ft | 487 kts | 124° |
| 2026-05-05 14:34 | 36.19356 | 29.82703 | 36974 ft | 486 kts | 124° |
| 2026-05-05 14:34 | 36.15515 | 29.89611 | 36987 ft | 486 kts | 124° |
| 2026-05-05 14:35 | 36.11670 | 29.96515 | 36986 ft | 487 kts | 124° |
| 2026-05-05 14:35 | 36.07847 | 30.03365 | 36986 ft | 487 kts | 124° |
| 2026-05-05 14:36 | 36.03993 | 30.10255 | 36989 ft | 487 kts | 124° |
| 2026-05-05 14:36 | 36.00133 | 30.17144 | 36997 ft | 488 kts | 124° |
| 2026-05-05 14:37 | 35.96261 | 30.24038 | 36975 ft | 488 kts | 125° |
| 2026-05-05 14:37 | 35.92390 | 30.30918 | 36987 ft | 488 kts | 125° |
| 2026-05-05 14:38 | 35.88529 | 30.37766 | 36990 ft | 488 kts | 125° |
| 2026-05-05 14:38 | 35.84648 | 30.44638 | 36997 ft | 489 kts | 125° |
| 2026-05-05 14:39 | 35.80752 | 30.51522 | 36991 ft | 489 kts | 125° |
| 2026-05-05 14:39 | 35.77358 | 30.58747 | 36985 ft | 488 kts | 109° |
| 2026-05-05 14:40 | 35.75150 | 30.66575 | 36994 ft | 487 kts | 107° |
| 2026-05-05 14:40 | 35.73030 | 30.74248 | 36991 ft | 487 kts | 108° |
| 2026-05-05 14:41 | 35.70794 | 30.82130 | 36991 ft | 488 kts | 108° |
| 2026-05-05 14:41 | 35.68522 | 30.89985 | 36991 ft | 488 kts | 108° |
| 2026-05-05 14:42 | 35.66227 | 30.97872 | 36504 ft | 494 kts | 109° |
| 2026-05-05 14:42 | 35.65070 | 31.01839 | 36021 ft | 491 kts | 109° |
| 2026-05-05 14:42 | 35.63931 | 31.05740 | 35458 ft | 491 kts | 109° |
| 2026-05-05 14:43 | 35.62778 | 31.09688 | 34883 ft | 491 kts | 109° |
| 2026-05-05 14:43 | 35.61618 | 31.13654 | 34298 ft | 492 kts | 109° |
| 2026-05-05 14:43 | 35.60461 | 31.17603 | 33610 ft | 493 kts | 109° |
| 2026-05-05 14:43 | 35.59296 | 31.21577 | 32939 ft | 493 kts | 109° |
| 2026-05-05 14:44 | 35.58130 | 31.25547 | 32348 ft | 492 kts | 109° |
| 2026-05-05 14:44 | 35.56974 | 31.29478 | 31940 ft | 486 kts | 109° |
| 2026-05-05 14:44 | 35.55831 | 31.33360 | 31476 ft | 481 kts | 109° |
| 2026-05-05 14:44 | 35.54699 | 31.37197 | 31045 ft | 476 kts | 109° |
| 2026-05-05 14:45 | 35.53570 | 31.41020 | 30630 ft | 476 kts | 109° |
| 2026-05-05 14:45 | 35.52439 | 31.44845 | 30210 ft | 479 kts | 109° |
| 2026-05-05 14:45 | 35.51299 | 31.48696 | 29726 ft | 480 kts | 109° |
| 2026-05-05 14:45 | 35.50158 | 31.52544 | 29270 ft | 478 kts | 109° |
| 2026-05-05 14:46 | 35.49025 | 31.56361 | 28827 ft | 475 kts | 109° |
| 2026-05-05 14:46 | 35.47909 | 31.60114 | 28404 ft | 473 kts | 109° |
| 2026-05-05 14:46 | 35.46782 | 31.63898 | 27958 ft | 471 kts | 109° |
| 2026-05-05 14:46 | 35.45660 | 31.67664 | 27517 ft | 469 kts | 109° |
| 2026-05-05 14:47 | 35.44539 | 31.71418 | 27084 ft | 467 kts | 109° |
| 2026-05-05 14:47 | 35.43424 | 31.75149 | 26654 ft | 465 kts | 109° |
| 2026-05-05 14:47 | 35.42314 | 31.78860 | 26234 ft | 463 kts | 109° |
| 2026-05-05 14:47 | 35.41204 | 31.82562 | 25797 ft | 461 kts | 109° |
| 2026-05-05 14:48 | 35.40100 | 31.86243 | 25371 ft | 459 kts | 109° |
| 2026-05-05 14:48 | 35.38997 | 31.89913 | 24952 ft | 458 kts | 109° |
| 2026-05-05 14:48 | 35.37898 | 31.93567 | 24537 ft | 456 kts | 109° |
| 2026-05-05 14:48 | 35.36799 | 31.97217 | 24116 ft | 455 kts | 109° |
| 2026-05-05 14:49 | 35.35708 | 32.00836 | 23715 ft | 451 kts | 109° |
| 2026-05-05 14:49 | 35.34623 | 32.04429 | 23268 ft | 448 kts | 109° |
| 2026-05-05 14:49 | 35.33547 | 32.07986 | 22861 ft | 443 kts | 109° |
| 2026-05-05 14:49 | 35.32482 | 32.11504 | 22366 ft | 440 kts | 108° |
| 2026-05-05 14:50 | 35.31417 | 32.15020 | 21877 ft | 437 kts | 108° |
| 2026-05-05 14:50 | 35.30719 | 32.17319 | 21582 ft | 435 kts | 108° |
| 2026-05-05 14:50 | 35.29331 | 32.21890 | 21021 ft | 430 kts | 108° |
| 2026-05-05 14:50 | 35.28293 | 32.25305 | 20595 ft | 426 kts | 108° |
| 2026-05-05 14:51 | 35.27272 | 32.28698 | 20162 ft | 423 kts | 108° |
| 2026-05-05 14:51 | 35.26265 | 32.32066 | 19757 ft | 420 kts | 108° |
| 2026-05-05 14:51 | 35.25602 | 32.34286 | 19488 ft | 417 kts | 108° |
| 2026-05-05 14:51 | 35.24275 | 32.38728 | 18898 ft | 415 kts | 107° |
| 2026-05-05 14:52 | 35.23609 | 32.40953 | 18599 ft | 411 kts | 107° |
| 2026-05-05 14:52 | 35.22640 | 32.44183 | 18043 ft | 406 kts | 107° |
| 2026-05-05 14:52 | 35.21677 | 32.47388 | 17664 ft | 396 kts | 107° |
| 2026-05-05 14:52 | 35.20738 | 32.50504 | 17310 ft | 385 kts | 107° |
| 2026-05-05 14:53 | 35.19817 | 32.53562 | 16789 ft | 381 kts | 107° |
| 2026-05-05 14:53 | 35.18904 | 32.56590 | 16250 ft | 377 kts | 107° |
| 2026-05-05 14:53 | 35.18003 | 32.59579 | 15765 ft | 372 kts | 107° |
| 2026-05-05 14:53 | 35.17112 | 32.62529 | 15305 ft | 368 kts | 107° |
| 2026-05-05 14:54 | 35.16229 | 32.65453 | 14800 ft | 365 kts | 107° |
| 2026-05-05 14:54 | 35.15355 | 32.68335 | 14397 ft | 358 kts | 107° |
| 2026-05-05 14:54 | 35.14496 | 32.71169 | 14031 ft | 352 kts | 107° |
| 2026-05-05 14:54 | 35.13653 | 32.73950 | 13667 ft | 349 kts | 107° |
| 2026-05-05 14:55 | 35.12812 | 32.76724 | 13256 ft | 348 kts | 107° |
| 2026-05-05 14:55 | 35.11974 | 32.79486 | 12894 ft | 345 kts | 107° |
| 2026-05-05 14:55 | 35.11141 | 32.82231 | 12503 ft | 343 kts | 107° |
| 2026-05-05 14:55 | 35.10320 | 32.84984 | 12004 ft | 346 kts | 107° |
| 2026-05-05 14:56 | 35.09500 | 32.87758 | 11465 ft | 349 kts | 107° |
| 2026-05-05 14:56 | 35.08677 | 32.90547 | 11092 ft | 347 kts | 107° |
| 2026-05-05 14:56 | 35.07861 | 32.93310 | 10716 ft | 345 kts | 107° |
| 2026-05-05 14:56 | 35.07059 | 32.96019 | 10397 ft | 342 kts | 108° |
| 2026-05-05 14:57 | 35.06261 | 32.98703 | 10275 ft | 331 kts | 107° |
| 2026-05-05 14:57 | 35.05491 | 33.01290 | 10130 ft | 318 kts | 108° |
| 2026-05-05 14:57 | 35.04750 | 33.03778 | 9988 ft | 305 kts | 107° |
| 2026-05-05 14:57 | 35.04062 | 33.06199 | 9689 ft | 299 kts | 105° |
| 2026-05-05 14:58 | 35.03419 | 33.08584 | 9399 ft | 292 kts | 105° |
| 2026-05-05 14:58 | 35.02963 | 33.10962 | 9132 ft | 284 kts | 95° |
| 2026-05-05 14:58 | 35.02691 | 33.13305 | 8941 ft | 274 kts | 95° |
| 2026-05-05 14:58 | 35.02419 | 33.15591 | 8746 ft | 270 kts | 96° |
| 2026-05-05 14:59 | 35.02158 | 33.17848 | 8503 ft | 268 kts | 95° |
| 2026-05-05 14:59 | 35.01902 | 33.20091 | 8260 ft | 266 kts | 95° |
| 2026-05-05 14:59 | 35.01650 | 33.22327 | 8013 ft | 265 kts | 95° |
| 2026-05-05 14:59 | 35.01408 | 33.24522 | 7762 ft | 264 kts | 95° |
| 2026-05-05 15:00 | 35.01169 | 33.26736 | 7509 ft | 263 kts | 95° |
| 2026-05-05 15:00 | 35.01010 | 33.28230 | 7342 ft | 262 kts | 95° |
| 2026-05-05 15:00 | 35.00711 | 33.31138 | 6944 ft | 263 kts | 94° |
| 2026-05-05 15:00 | 35.00789 | 33.33369 | 6608 ft | 264 kts | 80° |
| 2026-05-05 15:01 | 35.01049 | 33.35569 | 6430 ft | 259 kts | 80° |
| 2026-05-05 15:01 | 35.01298 | 33.37713 | 6359 ft | 250 kts | 81° |
| 2026-05-05 15:01 | 35.01652 | 33.39752 | 6182 ft | 244 kts | 65° |
| 2026-05-05 15:01 | 35.02419 | 33.41571 | 5966 ft | 240 kts | 60° |
| 2026-05-05 15:02 | 35.03204 | 33.43376 | 5720 ft | 239 kts | 60° |
| 2026-05-05 15:02 | 35.03975 | 33.45156 | 5490 ft | 236 kts | 59° |
| 2026-05-05 15:02 | 35.04735 | 33.46930 | 5240 ft | 237 kts | 61° |
| 2026-05-05 15:02 | 35.05500 | 33.48689 | 4995 ft | 238 kts | 60° |
| 2026-05-05 15:03 | 35.06290 | 33.50494 | 4746 ft | 237 kts | 61° |
| 2026-05-05 15:03 | 35.07051 | 33.52234 | 4584 ft | 228 kts | 60° |
| 2026-05-05 15:03 | 35.07775 | 33.53935 | 4427 ft | 225 kts | 66° |
| 2026-05-05 15:03 | 35.08004 | 33.55781 | 4268 ft | 227 kts | 97° |
| 2026-05-05 15:04 | 35.07482 | 33.57597 | 4016 ft | 227 kts | 121° |
| 2026-05-05 15:04 | 35.06661 | 33.59252 | 3656 ft | 229 kts | 120° |
| 2026-05-05 15:04 | 35.05857 | 33.60896 | 3537 ft | 219 kts | 120° |
| 2026-05-05 15:04 | 35.05098 | 33.62450 | 3400 ft | 207 kts | 120° |
| 2026-05-05 15:05 | 35.03676 | 33.65377 | 2772 ft | 200 kts | 120° |
| 2026-05-05 15:05 | 35.02985 | 33.66825 | 2469 ft | 197 kts | 120° |
| 2026-05-05 15:05 | 35.02287 | 33.68258 | 2218 ft | 192 kts | 120° |
| 2026-05-05 15:06 | 35.01610 | 33.69629 | 2015 ft | 186 kts | 120° |
| 2026-05-05 15:06 | 35.00896 | 33.70915 | 1776 ft | 186 kts | 136° |
| 2026-05-05 15:06 | 34.99734 | 33.71563 | 1577 ft | 187 kts | 178° |
| 2026-05-05 15:06 | 34.98462 | 33.71445 | 1544 ft | 179 kts | 186° |
| 2026-05-05 15:07 | 34.97261 | 33.71284 | 1494 ft | 168 kts | 186° |
| 2026-05-05 15:07 | 34.96101 | 33.71124 | 1517 ft | 167 kts | 186° |
| 2026-05-05 15:07 | 34.94947 | 33.70962 | 1506 ft | 167 kts | 188° |
| 2026-05-05 15:07 | 34.93930 | 33.70357 | 1480 ft | 165 kts | 227° |
| 2026-05-05 15:08 | 34.93126 | 33.69346 | 1287 ft | 164 kts | 221° |
| 2026-05-05 15:08 | 34.92325 | 33.68418 | 1086 ft | 154 kts | 223° |
| 2026-05-05 15:08 | 34.91601 | 33.67540 | 926 ft | 145 kts | 223° |
| 2026-05-05 15:08 | 34.90884 | 33.66668 | 744 ft | 146 kts | 223° |
| 2026-05-05 15:09 | 34.90159 | 33.65784 | 564 ft | 149 kts | 222° |
| 2026-05-05 15:09 | 34.89429 | 33.64892 | 385 ft | 149 kts | 222° |
| 2026-05-05 15:09 | 34.88699 | 33.64001 | 173 ft | 148 kts | 222° |
| 2026-05-05 15:09 | 34.87971 | 33.63119 | 23 ft | 145 kts | 222° |
| 2026-05-05 15:10 | 34.87341 | 33.62348 | 18 ft | 107 kts | 225° |
| 2026-05-05 15:10 | 34.86973 | 33.61901 | 21 ft | 46 kts | 225° |
| 2026-05-05 15:10 | 34.86825 | 33.61721 | 16 ft | 26 kts | 225° |
| 2026-05-05 15:10 | 34.86703 | 33.61573 | 17 ft | 24 kts | 224° |
| 2026-05-05 15:11 | 34.86621 | 33.61450 | 15 ft | 15 kts | 255° |
| 2026-05-05 15:11 | 34.86649 | 33.61369 | 17 ft | 11 kts | 314° |
| 2026-05-05 15:11 | 34.86699 | 33.61308 | 20 ft | 10 kts | 310° |
| 2026-05-05 15:11 | 34.86714 | 33.61233 | 19 ft | 10 kts | 249° |
| 2026-05-05 15:12 | 34.86672 | 33.61172 | 20 ft | 9 kts | 226° |
| 2026-05-05 15:12 | 34.86637 | 33.61110 | 20 ft | 9 kts | 265° |
| 2026-05-05 15:12 | 34.86668 | 33.61047 | 20 ft | 9 kts | 314° |
| 2026-05-05 15:12 | 34.86713 | 33.60992 | 19 ft | 8 kts | 315° |
| 2026-05-05 15:13 | 34.86749 | 33.60948 | 19 ft | 7 kts | 315° |
| 2026-05-05 15:13 | 34.86791 | 33.60943 | 19 ft | 6 kts | 34° |
| 2026-05-05 15:13 | 34.86810 | 33.60964 | 21 ft | 3 kts | 44° |
| 2026-05-05 15:13 | 34.86825 | 33.60982 | 19 ft | 3 kts | 45° |
| 2026-05-05 15:14 | 34.86833 | 33.60992 | 21 ft | 1 kts | 45° |
| 2026-05-05 15:14 | 34.86837 | 33.60996 | 21 ft | 0 kts | 45° |